(°F)
54°
56°
58°
60°
61°
62°
62°
(°F)
49°
50°
52°
54°
55°
56°
56°
WSW
SW
SW
SW
SW
WSW
WSW
(mph)
5-11
5-11
6-12
7-14
8-15
8-15
7-14
(in)
0
0
0
0
0
0
0
(%)
2
2
2
1
1
1
0

Sun elevation

/ 63.5°
sun-icon
UV 3
05:00
21:24
Waxing gibbous moon (107°)
15:00
02:09

METAR for Dryden (CYHD)

Time Conditions Temperature/
Dewpoint
Wind Visibility Weather Clouds Pressure Change Raw
MVFR 53.6°F / 46.4°F variable 2kt >10km - Overcast 1400ft 1012 - CYHD 191700Z AUTO VRB02KT 9SM OVC014 12/08 A2985 RMK SLP121 DENSITY ALT 1400FT
MVFR 51.8°F / 46.4°F 330º variable 270º to 350º 3kt >10km - Overcast 1600ft 1012 - CYHD 191600Z AUTO 33003KT 270V350 9SM OVC016 11/08 A2987 RMK SLP125 DENSITY ALT 1400FT
MVFR 51.8°F / 44.6°F variable 0kt >10km - Overcast 1400ft 1012 - CYHD 191500Z AUTO 00000KT 9SM OVC014 11/07 A2987 RMK SLP125
MVFR 50°F / 44.6°F 290º variable 270º to 340º 4kt >10km - Overcast 1400ft 1012 - CYHD 191400Z AUTO 29004KT 270V340 9SM OVC014 10/07 A2987 RMK SLP127
MVFR 50°F / 44.6°F 290º 5kt >10km - Overcast 1400ft 1013 - CYHD 191300Z AUTO 29005KT 9SM OVC014 10/07 A2988 RMK SLP130
MVFR 50°F / 46.4°F 340º variable 290º to 020º 3kt >10km - Overcast 1200ft 1012 - CYHD 191200Z AUTO 34003KT 290V020 9SM OVC012 10/08 A2988 RMK SLP128
MVFR 48.2°F / 44.6°F 280º variable 270º to 020º 3kt >10km - Overcast 1300ft 1012 - CYHD 191100Z AUTO 28003KT 270V020 9SM OVC013 09/07 A2988 RMK SLP129
MVFR 48.2°F / 44.6°F variable 2kt >10km - Overcast 1300ft 1012 - CYHD 191000Z AUTO VRB02KT 9SM OVC013 09/07 A2987 RMK SLP125
MVFR 50°F / 44.6°F 350º variable 320º to 060º 4kt >10km - Overcast 1300ft 1012 - CYHD 190900Z AUTO 35004KT 320V060 9SM OVC013 10/07 A2985 RMK SLP120
MVFR 50°F / 44.6°F 340º 5kt >10km - Overcast 1300ft 1012 - CYHD 190800Z AUTO 34005KT 9SM OVC013 10/07 A2986 RMK SLP123
MVFR 50°F / 44.6°F 360º variable 330º to 040º 6kt >10km - Overcast 1500ft 1012 - CYHD 190700Z AUTO 36006KT 330V040 9SM OVC015 10/07 A2986 RMK SLP123
MVFR 50°F / 44.6°F 350º variable 320º to 030º 5kt >10km - Overcast 1500ft 1012 - CYHD 190600Z AUTO 35005KT 320V030 9SM OVC015 10/07 A2986 RMK SLP122
MVFR 51.8°F / 44.6°F 10º variable 330º to 040º 6kt >10km - Overcast 2100ft 1012 - CYHD 190500Z AUTO 01006KT 330V040 9SM OVC021 11/07 A2985 RMK SLP121
MVFR 51.8°F / 46.4°F 10º variable 330º to 050º 7kt >10km - Overcast 1900ft 1011 - CYHD 190400Z AUTO 01007KT 330V050 9SM OVC019 11/08 A2984 RMK SLP116 DENSITY ALT 1400FT
MVFR 53.6°F / 46.4°F 350º variable 300º to 030º 6kt >10km - Overcast 2300ft 1010 - CYHD 190300Z AUTO 35006KT 300V030 9SM OVC023 12/08 A2982 RMK SLP107 DENSITY ALT 1500FT
MVFR 53.6°F / 46.4°F 350º variable 320º to 030º 8kt Gust 16kt >10km - Overcast 2300ft 1010 - CYHD 190243Z AUTO 35008G16KT 320V030 9SM OVC023 12/08 A2982 RMK SLP108 DENSITY ALT 1500FT
MVFR 55.4°F / 46.4°F 360º variable 320º to 040º 7kt >10km - Overcast 2900ft 1010 - CYHD 190200Z AUTO 36007KT 320V040 9SM OVC029 13/08 A2981 RMK SLP103 DENSITY ALT 1600FT
MVFR 55.4°F / 48.2°F 360º variable 310º to 020º 5kt >10km - Overcast 2600ft 1010 - CYHD 190126Z AUTO 36005KT 310V020 9SM OVC026 13/09 A2980 RMK SLP103 DENSITY ALT 1600FT
MVFR 55.4°F / 48.2°F 360º variable 320º to 030º 7kt >10km - Broken Clouds 2400ft 1010 - CYHD 190100Z AUTO 36007KT 320V030 9SM BKN024 OVC038 13/09 A2980 RMK SLP101 DENSITY ALT 1600FT
MVFR 55.4°F / 48.2°F 350º variable 300º to 030º 7kt >10km - Broken Clouds 2400ft 1010 - CYHD 190054Z AUTO 35007KT 300V030 9SM BKN024 OVC040 13/09 A2980 RMK SLP101 DENSITY ALT 1700FT
MVFR 57.2°F / 48.2°F 330º variable 290º to 030º 7kt >10km - Overcast 2600ft 1009 - CYHD 190000Z AUTO 33007KT 290V030 9SM OVC026 14/09 A2979 RMK SLP098 DENSITY ALT 1700FT
MVFR 59°F / 48.2°F 300º variable 250º to 330º 7kt >10km - Overcast 2800ft 1009 - CYHD 182300Z AUTO 30007KT 250V330 9SM OVC028 15/09 A2978 RMK SLP093 DENSITY ALT 1900FT
VFR 60.8°F / 48.2°F 320º variable 270º to 360º 6kt >10km - Overcast 3200ft 1008 - CYHD 182200Z AUTO 32006KT 270V360 9SM OVC032 16/09 A2976 RMK SLP087 DENSITY ALT 2000FT
MVFR 60.8°F / 46.4°F 280º variable 270º to 330º 11kt Gust 18kt >10km - Overcast 3000ft 1008 - CYHD 182100Z AUTO 28011G18KT 270V330 9SM OVC030 16/08 A2975 RMK SLP082 DENSITY ALT 2000FT

MVFR

53.6°F / 46.4°F

[More]
Wind variable 2kt
Visibility >10km
Weather -
Clouds Overcast 1400ft
Pressure 1012
Change -
Raw CYHD 191700Z AUTO VRB02KT 9SM OVC014 12/08 A2985 RMK SLP121 DENSITY ALT 1400FT

MVFR

51.8°F / 46.4°F

[More]
Wind 330º variable 270º to 350º 3kt
Visibility >10km
Weather -
Clouds Overcast 1600ft
Pressure 1012
Change -
Raw CYHD 191600Z AUTO 33003KT 270V350 9SM OVC016 11/08 A2987 RMK SLP125 DENSITY ALT 1400FT

MVFR

51.8°F / 44.6°F

[More]
Wind variable 0kt
Visibility >10km
Weather -
Clouds Overcast 1400ft
Pressure 1012
Change -
Raw CYHD 191500Z AUTO 00000KT 9SM OVC014 11/07 A2987 RMK SLP125

MVFR

50°F / 44.6°F

[More]
Wind 290º variable 270º to 340º 4kt
Visibility >10km
Weather -
Clouds Overcast 1400ft
Pressure 1012
Change -
Raw CYHD 191400Z AUTO 29004KT 270V340 9SM OVC014 10/07 A2987 RMK SLP127

MVFR

50°F / 44.6°F

[More]
Wind 290º 5kt
Visibility >10km
Weather -
Clouds Overcast 1400ft
Pressure 1013
Change -
Raw CYHD 191300Z AUTO 29005KT 9SM OVC014 10/07 A2988 RMK SLP130

MVFR

50°F / 46.4°F

[More]
Wind 340º variable 290º to 020º 3kt
Visibility >10km
Weather -
Clouds Overcast 1200ft
Pressure 1012
Change -
Raw CYHD 191200Z AUTO 34003KT 290V020 9SM OVC012 10/08 A2988 RMK SLP128

MVFR

48.2°F / 44.6°F

[More]
Wind 280º variable 270º to 020º 3kt
Visibility >10km
Weather -
Clouds Overcast 1300ft
Pressure 1012
Change -
Raw CYHD 191100Z AUTO 28003KT 270V020 9SM OVC013 09/07 A2988 RMK SLP129

MVFR

48.2°F / 44.6°F

[More]
Wind variable 2kt
Visibility >10km
Weather -
Clouds Overcast 1300ft
Pressure 1012
Change -
Raw CYHD 191000Z AUTO VRB02KT 9SM OVC013 09/07 A2987 RMK SLP125

MVFR

50°F / 44.6°F

[More]
Wind 350º variable 320º to 060º 4kt
Visibility >10km
Weather -
Clouds Overcast 1300ft
Pressure 1012
Change -
Raw CYHD 190900Z AUTO 35004KT 320V060 9SM OVC013 10/07 A2985 RMK SLP120

MVFR

50°F / 44.6°F

[More]
Wind 340º 5kt
Visibility >10km
Weather -
Clouds Overcast 1300ft
Pressure 1012
Change -
Raw CYHD 190800Z AUTO 34005KT 9SM OVC013 10/07 A2986 RMK SLP123

MVFR

50°F / 44.6°F

[More]
Wind 360º variable 330º to 040º 6kt
Visibility >10km
Weather -
Clouds Overcast 1500ft
Pressure 1012
Change -
Raw CYHD 190700Z AUTO 36006KT 330V040 9SM OVC015 10/07 A2986 RMK SLP123

MVFR

50°F / 44.6°F

[More]
Wind 350º variable 320º to 030º 5kt
Visibility >10km
Weather -
Clouds Overcast 1500ft
Pressure 1012
Change -
Raw CYHD 190600Z AUTO 35005KT 320V030 9SM OVC015 10/07 A2986 RMK SLP122

MVFR

51.8°F / 44.6°F

[More]
Wind 10º variable 330º to 040º 6kt
Visibility >10km
Weather -
Clouds Overcast 2100ft
Pressure 1012
Change -
Raw CYHD 190500Z AUTO 01006KT 330V040 9SM OVC021 11/07 A2985 RMK SLP121

MVFR

51.8°F / 46.4°F

[More]
Wind 10º variable 330º to 050º 7kt
Visibility >10km
Weather -
Clouds Overcast 1900ft
Pressure 1011
Change -
Raw CYHD 190400Z AUTO 01007KT 330V050 9SM OVC019 11/08 A2984 RMK SLP116 DENSITY ALT 1400FT

MVFR

53.6°F / 46.4°F

[More]
Wind 350º variable 300º to 030º 6kt
Visibility >10km
Weather -
Clouds Overcast 2300ft
Pressure 1010
Change -
Raw CYHD 190300Z AUTO 35006KT 300V030 9SM OVC023 12/08 A2982 RMK SLP107 DENSITY ALT 1500FT

MVFR

53.6°F / 46.4°F

[More]
Wind 350º variable 320º to 030º 8kt Gust 16kt
Visibility >10km
Weather -
Clouds Overcast 2300ft
Pressure 1010
Change -
Raw CYHD 190243Z AUTO 35008G16KT 320V030 9SM OVC023 12/08 A2982 RMK SLP108 DENSITY ALT 1500FT

MVFR

55.4°F / 46.4°F

[More]
Wind 360º variable 320º to 040º 7kt
Visibility >10km
Weather -
Clouds Overcast 2900ft
Pressure 1010
Change -
Raw CYHD 190200Z AUTO 36007KT 320V040 9SM OVC029 13/08 A2981 RMK SLP103 DENSITY ALT 1600FT

MVFR

55.4°F / 48.2°F

[More]
Wind 360º variable 310º to 020º 5kt
Visibility >10km
Weather -
Clouds Overcast 2600ft
Pressure 1010
Change -
Raw CYHD 190126Z AUTO 36005KT 310V020 9SM OVC026 13/09 A2980 RMK SLP103 DENSITY ALT 1600FT

MVFR

55.4°F / 48.2°F

[More]
Wind 360º variable 320º to 030º 7kt
Visibility >10km
Weather -
Clouds Broken Clouds 2400ft
Pressure 1010
Change -
Raw CYHD 190100Z AUTO 36007KT 320V030 9SM BKN024 OVC038 13/09 A2980 RMK SLP101 DENSITY ALT 1600FT

MVFR

55.4°F / 48.2°F

[More]
Wind 350º variable 300º to 030º 7kt
Visibility >10km
Weather -
Clouds Broken Clouds 2400ft
Pressure 1010
Change -
Raw CYHD 190054Z AUTO 35007KT 300V030 9SM BKN024 OVC040 13/09 A2980 RMK SLP101 DENSITY ALT 1700FT

MVFR

57.2°F / 48.2°F

[More]
Wind 330º variable 290º to 030º 7kt
Visibility >10km
Weather -
Clouds Overcast 2600ft
Pressure 1009
Change -
Raw CYHD 190000Z AUTO 33007KT 290V030 9SM OVC026 14/09 A2979 RMK SLP098 DENSITY ALT 1700FT

MVFR

59°F / 48.2°F

[More]
Wind 300º variable 250º to 330º 7kt
Visibility >10km
Weather -
Clouds Overcast 2800ft
Pressure 1009
Change -
Raw CYHD 182300Z AUTO 30007KT 250V330 9SM OVC028 15/09 A2978 RMK SLP093 DENSITY ALT 1900FT

VFR

60.8°F / 48.2°F

[More]
Wind 320º variable 270º to 360º 6kt
Visibility >10km
Weather -
Clouds Overcast 3200ft
Pressure 1008
Change -
Raw CYHD 182200Z AUTO 32006KT 270V360 9SM OVC032 16/09 A2976 RMK SLP087 DENSITY ALT 2000FT

MVFR

60.8°F / 46.4°F

[More]
Wind 280º variable 270º to 330º 11kt Gust 18kt
Visibility >10km
Weather -
Clouds Overcast 3000ft
Pressure 1008
Change -
Raw CYHD 182100Z AUTO 28011G18KT 270V330 9SM OVC030 16/08 A2975 RMK SLP082 DENSITY ALT 2000FT

TAF for Dryden (CYHD)

From till


From till Wind variable 3kt. Visibility 10km or more. Overcast 1500ft.
Temporarly from till Scattered Clouds 1500ft. Overcast 3000ft.
From till Wind 240º 8kt. Visibility 10km or more. Broken Clouds 3000ft.
From till Wind 240º 7kt. Visibility 10km or more. Broken Clouds 5000ft.

Raw: TAF AMD CYHD 191712Z 1917/2002 VRB03KT P6SM OVC015 TEMPO 1917/1919 SCT015 OVC030 FM191900 24008KT P6SM BKN030 FM192300 24007KT P6SM BKN050 RMK FCST BASED ON AUTO OBS. NXT FCST BY 192000Z

rainNOW

0.0 inch
0.0 inch
0.0 inch
0.0 inch
0.0 inch
0.0 inch
0.1 inch
0.0 inch
0.0 inch
0.0 inch
0.0 inch
0.0 inch

Current satellite images for Dryden, Canada

The location marker is placed on Dryden. [More]

The real-time satellite image combines visible light during daytime with infrared radiation during nighttime. At night, the image is not dark as infrared radiation can detect temperature differences. Unfortunately, low clouds and fog are difficult to distinguish from ground temperatures and thus can be almost invisible during the night. Meteosat satellite images for Europe are updated in real-time every 5 minutes. GOES-16/GOES-17 (North & South America) and Himawari (Asia) images update every 10 minutes.

Radar and precipitation nowcast for Dryden

The location marker is placed on Dryden. This animation shows the precipitation radar for the last hour, as well as a 1h forecast. Drizzle or light snow fall might be invisible for the radar. Precipitation intensity is colour coded, ranging from light blue to heavy purple.